• Join FlightAware (Why Join?)
  • Login
  • US Flag 
10:07AM EDT


 

Airport Tracker/Info


-or-


 

Live Flight TrackerFlight Track Log ✈ AAY894 ✈ 03-Jul-2014 ✈ KPIE - KIAG

Flight Track Log - Related Links

Times and Time Zones

All times are in EDT time to prevent confusion due to time zone crossing. See the AAY894 flight status page for this flight to view local times or setup timezone preferences in your user account.

Time Position Orientation Groundspeed Altitude Reporting Facility
EDT Latitude Longitude Course Direction KTS MPH feet Rate Location/Type
07:49AM 27.9333 -82.7000 41° Northeast 167 192 800  Level Tampa TRACON
07:49AM 27.9500 -82.6833 41° Northeast 179 206 1,900 1,620 Climbing Tampa TRACON
07:50AM 28.0000 -82.6500 30° Northeast 247 284 3,300 2,160 Climbing Tampa TRACON
07:52AM 28.1300 -82.6275 North 276 318 7,900 2,580 Climbing Miami Center
07:53AM 28.2106 -82.6122 North 287 330 10,500 1,800 Climbing Miami Center
07:54AM 28.3017 -82.5939 10° North 329 379 11,600 1,440 Climbing Miami Center
07:55AM 28.4081 -82.5728 10° North 380 437 13,500 2,220 Climbing Miami Center
07:56AM 28.5428 -82.5458 10° North 406 467 16,200 2,220 Climbing Miami Center
07:57AM 28.6569 -82.5225 10° North 425 489 18,100 1,800 Climbing Miami Center
07:58AM 28.7772 -82.4994 10° North 434 499 19,900 1,740 Climbing Miami Center
07:59AM 28.9017 -82.5092 356° North 451 519 21,700 1,560 Climbing Miami Center
08:00AM 29.0283 -82.5233 354° North 455 524 23,100 1,380 Climbing Miami Center
08:01AM 29.1553 -82.5531 348° North 464 534 24,600 1,500 Climbing Miami Center
08:02AM 29.2808 -82.5933 344° North 469 540 26,200 1,500 Climbing Miami Center
08:03AM 29.4044 -82.6317 345° North 467 537 27,700 1,560 Climbing Miami Center
08:04AM 29.5531 -82.6511 354° North 457 526 29,400 1,380 Climbing Miami Center
08:05AM 29.6789 -82.6378 North 457 526 30,600 900 Climbing Miami Center
08:06AM 29.8053 -82.6250 North 457 526 31,300 840 Climbing Miami Center
08:07AM 29.9322 -82.6108 North 460 529 32,400 780 Climbing Miami Center
08:08AM 30.0569 -82.5989 North 457 526 33,000 240 Climbing Miami Center
08:09AM 30.1894 -82.5842 North 455 524 32,900  Descending Miami Center
08:10AM 30.3119 -82.5750 North 456 525 33,000  Climbing Jacksonville Center
08:11AM 30.4456 -82.5600 North 449 517 33,000 -60 Level Jacksonville Center
08:12AM 30.5689 -82.5500 North 444 511 32,900  Descending Jacksonville Center
08:13AM 30.6942 -82.5472 North 439 505 33,000  Climbing Jacksonville Center
08:14AM 30.8214 -82.5442 North 439 505 33,000 -60 Level Jacksonville Center
08:15AM 30.9489 -82.5364 North 445 512 32,900 -60 Descending Jacksonville Center
08:16AM 31.0742 -82.5311 North 445 512 32,900  Level Jacksonville Center
08:17AM 31.2014 -82.5258 North 450 518 32,900  Level Jacksonville Center
08:18AM 31.3286 -82.5206 North 450 518 32,900  Level Jacksonville Center
08:21AM 31.6825 -82.4867 North 460 529 33,000  Climbing Atlanta Center
08:22AM 31.8097 -82.4675 North 438 504 33,000  Level Atlanta Center
08:23AM 31.9431 -82.4456 North 433 498 33,000  Level Atlanta Center
08:24AM 32.0533 -82.4264 North 433 498 33,000  Level Atlanta Center
08:25AM 32.1783 -82.4069 North 444 511 33,000  Level Atlanta Center
08:26AM 32.3136 -82.3922 North 444 511 33,000  Level Atlanta Center
08:27AM 32.4386 -82.3653 10° North 444 511 33,000  Level Atlanta Center
08:28AM 32.5617 -82.3481 North 444 511 33,000  Level Atlanta Center
08:29AM 32.6822 -82.3261 North 444 511 33,000  Level Atlanta Center
08:30AM 32.7947 -82.3117 North 444 511 33,000  Level Atlanta Center
08:31AM 32.9197 -82.2892 North 444 511 33,000  Level Atlanta Center
08:32AM 33.0425 -82.2694 North 444 511 33,000  Level Atlanta Center
08:33AM 33.1717 -82.2494 North 450 518 33,000  Level Atlanta Center
08:34AM 33.2967 -82.2294 North 450 518 33,000  Level Atlanta Center
08:35AM 33.4217 -82.2069 North 450 518 33,000  Level Atlanta Center
08:36AM 33.5506 -82.1867 North 455 524 33,000  Level Atlanta Center
08:37AM 33.6778 -82.1642 North 460 529 33,000  Level Atlanta Center
08:38AM 33.8067 -82.1414 North 460 529 33,000  Level Atlanta Center
08:39AM 33.9461 -82.1206 North 465 535 33,000  Level Atlanta Center
08:40AM 34.0753 -82.0978 North 465 535 33,000  Level Atlanta Center
08:41AM 34.2022 -82.0747 North 465 535 33,000  Level Atlanta Center
08:42AM 34.3272 -82.0542 North 465 535 33,000  Level Atlanta Center
08:43AM 34.4542 -82.0311 North 465 535 33,000  Level Atlanta Center
08:44AM 34.5811 -82.0128 North 460 529 33,000  Level Atlanta Center
08:45AM 34.7081 -81.9869 North 460 529 33,000  Level Atlanta Center
08:46AM 34.8369 -81.9661 North 460 529 33,000  Level Atlanta Center
08:47AM 34.9514 -81.9481 North 460 529 33,000  Level Atlanta Center
08:48AM 35.0761 -81.9222 10° North 460 529 33,000  Level Atlanta Center
08:49AM 35.2028 -81.8858 13° North 460 529 33,000  Level Atlanta Center
08:50AM 35.3275 -81.8494 13° North 460 529 33,000  Level Atlanta Center
08:51AM 35.4561 -81.8131 13° North 466 536 33,000  Level Atlanta Center
08:52AM 35.5972 -81.7733 13° North 466 536 33,000  Level Atlanta Center
08:53AM 35.7239 -81.7367 13° North 466 536 33,000  Level Atlanta Center
08:54AM 35.8525 -81.6997 13° North 466 536 33,000  Level Atlanta Center
08:55AM 35.9789 -81.6625 13° North 466 536 33,000  Level Atlanta Center
08:56AM 36.1075 -81.6228 14° North 466 536 33,000  Level Atlanta Center
08:57AM 36.2361 -81.5881 12° North 471 542 33,000  Level Atlanta Center
08:58AM 36.3625 -81.5483 14° North 471 542 33,000  Level Atlanta Center
08:59AM 36.4931 -81.5106 13° North 471 542 33,000  Level Atlanta Center
09:00AM 36.6217 -81.4703 14° North 471 542 33,000  Level Atlanta Center
09:02AM 36.9186 -81.3828 13° North 475 547 33,000  Level Indianapolis Center
09:04AM 37.0653 -81.3389 13° North 475 547 33,000  Level Indianapolis Center
09:05AM 37.1939 -81.3011 13° North 476 548 33,000  Level Indianapolis Center
09:06AM 37.3319 -81.2600 13° North 475 547 33,000  Level Indianapolis Center
09:07AM 37.4611 -81.2214 13° North 475 547 33,000  Level Indianapolis Center
09:08AM 37.5919 -81.1825 13° North 477 549 33,000  Level Indianapolis Center
09:09AM 37.7231 -81.1419 14° North 480 552 33,000  Level Indianapolis Center
09:10AM 37.8653 -81.0944 15° North 480 552 33,000  Level Indianapolis Center
09:11AM 37.9961 -81.0581 12° North 480 552 33,000  Level Indianapolis Center
09:12AM 38.1264 -81.0214 12° North 480 552 33,000  Level Indianapolis Center
09:13AM 38.2561 -80.9856 12° North 480 552 33,000  Level Indianapolis Center
09:14AM 38.3858 -80.9472 13° North 480 552 33,000  Level Indianapolis Center
09:15AM 38.5161 -80.9083 13° North 480 552 33,000  Level Indianapolis Center
09:16AM 38.6733 -80.8614 13° North 481 554 33,000  Level Indianapolis Center
09:17AM 38.8036 -80.8233 13° North 482 555 33,000  Level Indianapolis Center
09:18AM 38.9333 -80.7844 13° North 482 555 33,000  Level Indianapolis Center
09:19AM 39.0650 -80.7444 13° North 483 556 33,000  Level Indianapolis Center
09:20AM 39.1969 -80.7058 13° North 483 556 33,000  Level Indianapolis Center
09:21AM 39.3306 -80.6647 13° North 490 564 33,000  Level Indianapolis Center
09:22AM 39.4931 -80.6194 12° North 495 570 33,000  Level Indianapolis Center
09:23AM 39.6261 -80.5783 13° North 495 570 33,000  Level Indianapolis Center
09:24AM 39.7936 -80.5303 12° North 491 565 33,000  Level Cleveland Center
09:25AM 39.9286 -80.4878 14° North 493 567 33,000  Level Cleveland Center
09:27AM 40.0892 -80.4389 13° North 494 568 33,000  Level Cleveland Center
09:28AM 40.2236 -80.3978 13° North 494 568 33,000  Level Cleveland Center
09:29AM 40.3608 -80.3569 13° North 494 568 33,000 -540 Level Cleveland Center
09:30AM 40.4897 -80.3150 14° North 504 580 32,000 -1,020 Descending Cleveland Center
09:31AM 40.6528 -80.2642 13° North 503 579 30,900 -1,020 Descending Cleveland Center
09:32AM 40.7906 -80.2211 13° North 505 581 29,900 -960 Descending Cleveland Center
09:33AM 40.9119 -80.1497 24° Northeast 517 595 29,000 -960 Descending Cleveland Center
09:34AM 41.0403 -80.0561 29° Northeast 521 600 28,000 -540 Descending Cleveland Center
09:35AM 41.1756 -79.9592 28° Northeast 521 600 28,000  Level Cleveland Center
09:36AM 41.2994 -79.8689 29° Northeast 515 593 28,000  Level Cleveland Center
09:37AM 41.4503 -79.7578 29° Northeast 515 593 28,000  Level Cleveland Center
09:38AM 41.5764 -79.6656 29° Northeast 515 593 28,000  Level Cleveland Center
09:39AM 41.7022 -79.5728 29° Northeast 517 595 28,000 -300 Level Cleveland Center
09:40AM 41.8281 -79.4806 29° Northeast 517 595 27,400 -1,260 Descending Cleveland Center
09:41AM 41.9522 -79.3856 30° Northeast 517 595 25,400 -2,040 Descending Cleveland Center
09:42AM 42.0717 -79.2969 29° Northeast 498 573 23,300 -2,220 Descending Cleveland Center
09:43AM 42.2083 -79.1936 29° Northeast 476 548 20,900 -2,280 Descending Cleveland Center
09:44AM 42.3169 -79.1111 29° Northeast 454 522 18,600 -2,580 Descending Cleveland Center
09:45AM 42.4203 -79.0331 29° Northeast 433 498 15,600 -3,120 Descending Cleveland Center
09:46AM 42.5292 -78.9506 29° Northeast 411 473 12,200 -2,760 Descending Cleveland Center
09:47AM 42.6339 -78.9094 16° North 380 437 9,900 -1,080 Descending Cleveland Center
09:48AM 42.7167 -78.9094 360° North 311 358 10,000 -600 Climbing Cleveland Center
09:49AM 42.8067 -78.9158 357° North 310 357 8,700 -1,500 Descending Cleveland Center
09:50AM 42.8947 -78.9239 356° North 307 353 7,000 -1,140 Descending Cleveland Center
09:51AM 42.9814 -78.9239 360° North 302 348 6,400 -900 Descending Cleveland Center
09:52AM 43.0617 -78.9144 North 284 327 5,200 -720 Descending Cleveland Center
09:53AM 43.1361 -78.9103 North 265 305 5,000 -180 Descending Cleveland Center
09:54AM 43.1747 -78.8633 42° Northeast 204 235 4,900 -840 Descending Cleveland Center
09:55AM 43.1769 -78.7908 88° East 197 227 3,300 -900 Descending Cleveland Center
09:57AM 43.1500 -78.6833 109° East 165 190 2,300 -360 Descending Buffalo TRACON
10:00AM 43.1172 -78.8131 251° West 170 196 2,000 -300 Descending Cleveland Center
10:01AM 43.1075 -78.8744 258° West 169 194 1,500 -540 Descending Cleveland Center